Time;durP1;ratioP1;P1;durP2;ratioP2;P2;SDS_P1;SDS_P2;PMS_P1;PMS_P2;Temp;Humidity;BMP_temperature;BMP_pressure;BME280_temperature;BME280_humidity;BME280_pressure;Samples;Min_cycle;Max_cycle;Signal;HPM_P1;HPM_P2
2022/01/03 00:00:31;;;;;;;86.57;52.53;;;26.40;99.90;;;;;;5016294;28;20042;-70
2022/01/03 00:03:01;;;;;;;58.53;36.45;;;26.40;99.90;;;;;;5016097;28;20018;-71
2022/01/03 00:05:28;;;;;;;50.20;34.85;;;26.40;99.90;;;;;;5012679;28;20041;-72
2022/01/03 00:07:55;;;;;;;68.93;43.70;;;26.40;99.90;;;;;;5016175;28;20029;-72
2022/01/03 00:10:21;;;;;;;61.08;35.20;;;26.40;99.90;;;;;;5016120;28;20037;-71
2022/01/03 00:12:49;;;;;;;49.20;31.52;;;26.40;99.90;;;;;;5015745;28;20030;-71
2022/01/03 00:15:18;;;;;;;47.72;28.48;;;26.40;99.90;;;;;;5015402;28;20025;-71
2022/01/03 00:17:49;;;;;;;50.92;29.23;;;26.40;99.90;;;;;;5015660;28;20164;-72
2022/01/03 00:20:16;;;;;;;43.10;27.87;;;26.50;99.90;;;;;;5015958;28;20029;-74
2022/01/03 00:22:57;;;;;;;67.15;46.70;;;26.50;99.90;;;;;;5015930;28;20025;-69
2022/01/03 00:25:26;;;;;;;52.85;30.98;;;26.50;99.90;;;;;;5015823;28;20383;-70
2022/01/03 00:28:10;;;;;;;41.20;28.13;;;26.50;99.90;;;;;;5015959;28;20498;-71
2022/01/03 00:30:38;;;;;;;48.33;29.25;;;26.50;99.90;;;;;;5014646;28;20050;-71
2022/01/03 00:33:05;;;;;;;46.97;25.92;;;26.50;99.90;;;;;;5015802;28;20128;-72
2022/01/03 00:35:35;;;;;;;42.38;25.65;;;26.50;99.90;;;;;;5015377;28;20116;-72
2022/01/03 00:38:02;;;;;;;37.03;25.15;;;26.50;99.90;;;;;;5014889;28;20026;-72
2022/01/03 00:40:29;;;;;;;33.13;23.25;;;26.50;99.90;;;;;;5015901;28;20084;-70
2022/01/03 00:42:55;;;;;;;27.77;18.38;;;26.50;99.90;;;;;;5015399;28;20028;-71
2022/01/03 00:45:22;;;;;;;37.40;21.30;;;26.40;99.90;;;;;;5015199;28;20033;-73
2022/01/03 00:47:49;;;;;;;30.52;17.75;;;26.50;99.90;;;;;;5014777;28;20096;-71
2022/01/03 00:50:18;;;;;;;22.98;14.25;;;26.50;99.90;;;;;;5015946;28;20113;-71
2022/01/03 00:52:46;;;;;;;29.90;16.73;;;26.50;99.90;;;;;;5012354;28;20045;-71
2022/01/03 00:55:13;;;;;;;23.42;15.07;;;26.50;99.90;;;;;;5014656;28;20026;-71
2022/01/03 00:57:49;;;;;;;23.50;14.10;;;26.50;99.90;;;;;;5015446;28;20586;-71
2022/01/03 01:00:16;;;;;;;29.92;15.45;;;26.50;99.90;;;;;;5014114;28;20487;-71
2022/01/03 01:02:51;;;;;;;25.08;13.52;;;26.50;99.90;;;;;;5014658;28;20021;-71
2022/01/03 01:05:20;;;;;;;61.72;43.63;;;26.50;99.90;;;;;;5013293;28;20022;-71
2022/01/03 01:07:48;;;;;;;30.08;16.77;;;26.60;99.90;;;;;;5014712;28;20037;-73
2022/01/03 01:10:15;;;;;;;71.90;54.33;;;26.70;99.90;;;;;;5015052;28;20044;-71
2022/01/03 01:12:43;;;;;;;33.25;22.25;;;26.80;99.90;;;;;;5014703;28;20029;-70
2022/01/03 01:15:10;;;;;;;24.52;14.60;;;26.90;99.90;;;;;;5014881;28;20030;-70
2022/01/03 01:17:37;;;;;;;21.45;12.38;;;27.00;99.90;;;;;;5012201;28;20014;-71
2022/01/03 01:20:04;;;;;;;23.58;12.27;;;27.00;99.90;;;;;;5014930;28;20483;-72
2022/01/03 01:22:31;;;;;;;20.80;11.50;;;27.00;99.90;;;;;;5015128;28;20030;-73
2022/01/03 01:25:22;;;;;;;20.50;11.88;;;27.10;99.90;;;;;;5015784;28;20018;-70
2022/01/03 01:27:53;;;;;;;15.43;10.88;;;27.10;99.90;;;;;;5009152;28;20056;-70
2022/01/03 01:30:27;;;;;;;18.58;11.07;;;27.10;99.90;;;;;;5013932;28;20052;-70
2022/01/03 01:33:03;;;;;;;16.83;11.98;;;27.10;99.90;;;;;;5014517;28;20040;-71
2022/01/03 01:35:35;;;;;;;18.67;12.18;;;27.10;99.90;;;;;;5014631;28;20025;-71
2022/01/03 01:38:03;;;;;;;18.85;12.50;;;27.10;99.90;;;;;;5019694;28;20030;-71
2022/01/03 01:40:30;;;;;;;21.40;12.30;;;27.10;99.90;;;;;;5012042;28;20533;-71
2022/01/03 01:42:58;;;;;;;17.90;12.32;;;27.10;99.90;;;;;;5015571;28;20026;-71
2022/01/03 01:45:27;;;;;;;14.82;10.10;;;27.10;99.90;;;;;;5014604;28;20115;-71
2022/01/03 01:47:59;;;;;;;16.83;9.65;;;27.20;99.90;;;;;;5014626;28;20033;-71
2022/01/03 01:50:29;;;;;;;16.15;9.63;;;27.10;99.90;;;;;;5014398;28;20080;-71
2022/01/03 01:52:57;;;;;;;14.23;9.40;;;27.20;99.90;;;;;;5028559;28;20036;-71
2022/01/03 01:55:24;;;;;;;15.27;10.38;;;27.20;99.90;;;;;;5032720;28;20034;-71
2022/01/03 01:58:03;;;;;;;12.40;8.20;;;27.20;99.90;;;;;;5021803;28;20713;-71
2022/01/03 02:00:30;;;;;;;14.85;8.50;;;27.20;99.90;;;;;;5016441;28;20503;-72
2022/01/03 02:03:05;;;;;;;14.65;9.43;;;27.20;99.90;;;;;;5014201;28;20026;-71
2022/01/03 02:05:41;;;;;;;19.05;9.68;;;27.20;99.90;;;;;;5014177;28;20076;-72
2022/01/03 02:08:10;;;;;;;20.13;10.32;;;27.30;99.90;;;;;;5013943;28;20426;-71
2022/01/03 02:10:50;;;;;;;15.48;9.02;;;27.30;99.90;;;;;;5013885;28;20026;-71
2022/01/03 02:13:21;;;;;;;16.70;10.05;;;27.30;99.90;;;;;;4994510;28;20027;-72
2022/01/03 02:15:57;;;;;;;17.35;10.50;;;27.30;99.90;;;;;;5008501;28;20029;-72
2022/01/03 02:18:27;;;;;;;12.60;9.43;;;27.30;99.90;;;;;;5011252;28;20029;-71
2022/01/03 02:20:54;;;;;;;16.20;9.98;;;27.40;99.90;;;;;;5012996;28;20033;-71
2022/01/03 02:23:21;;;;;;;31.20;20.95;;;27.50;99.90;;;;;;5013071;28;20025;-72
2022/01/03 02:25:48;;;;;;;89.68;54.88;;;27.50;99.90;;;;;;5013427;28;20072;-70
2022/01/03 02:28:20;;;;;;;131.23;94.32;;;27.60;99.90;;;;;;5013632;28;20026;-71
2022/01/03 02:30:47;;;;;;;15.80;10.80;;;27.70;99.90;;;;;;5013996;28;20034;-71
2022/01/03 02:33:14;;;;;;;24.58;15.25;;;27.80;99.90;;;;;;5015703;28;20045;-71
2022/01/03 02:35:42;;;;;;;16.00;8.45;;;27.80;99.90;;;;;;5013704;28;20076;-71
2022/01/03 02:38:10;;;;;;;14.68;7.57;;;27.90;99.90;;;;;;5015980;28;20033;-72
2022/01/03 02:40:37;;;;;;;15.48;9.25;;;28.00;99.90;;;;;;5013199;28;20018;-72
2022/01/03 02:43:04;;;;;;;13.80;7.85;;;28.00;99.90;;;;;;5013234;28;20014;-71
2022/01/03 02:45:31;;;;;;;13.40;7.47;;;28.00;99.90;;;;;;5013743;28;20033;-71
2022/01/03 02:48:00;;;;;;;46.60;32.40;;;28.00;99.90;;;;;;5013490;28;20379;-71
2022/01/03 02:50:29;;;;;;;34.53;14.63;;;28.10;99.90;;;;;;5014420;28;20025;-71
2022/01/03 02:52:57;;;;;;;29.30;14.98;;;28.20;99.90;;;;;;5012948;28;20025;-71
2022/01/03 02:55:26;;;;;;;29.05;16.00;;;28.10;99.90;;;;;;5013367;28;20026;-71
2022/01/03 02:57:54;;;;;;;15.88;9.20;;;28.20;99.90;;;;;;5011077;28;20210;-72
2022/01/03 03:00:26;;;;;;;15.65;9.05;;;28.30;99.90;;;;;;5016179;28;20115;-75
2022/01/03 03:02:53;;;;;;;17.17;9.80;;;28.20;99.90;;;;;;5012824;28;20105;-71
2022/01/03 03:05:20;;;;;;;13.50;7.97;;;28.10;99.90;;;;;;5014555;28;20025;-74
2022/01/03 03:07:47;;;;;;;10.68;7.55;;;28.10;99.90;;;;;;5009445;28;20491;-71
2022/01/03 03:10:17;;;;;;;16.55;7.50;;;28.00;99.90;;;;;;5012152;28;20030;-74
2022/01/03 03:12:44;;;;;;;9.38;6.10;;;28.10;99.90;;;;;;5006757;28;20030;-70
2022/01/03 03:15:13;;;;;;;10.15;5.72;;;28.10;99.90;;;;;;5011509;28;20124;-71
2022/01/03 03:17:41;;;;;;;12.55;6.13;;;28.20;99.90;;;;;;5011842;28;20014;-74
2022/01/03 03:20:15;;;;;;;13.68;6.13;;;28.20;99.90;;;;;;5012839;28;20014;-74
2022/01/03 03:22:43;;;;;;;15.25;6.28;;;28.40;99.90;;;;;;5011879;28;20093;-71
2022/01/03 03:25:12;;;;;;;13.52;5.32;;;28.60;99.90;;;;;;5014239;28;20471;-72
2022/01/03 03:27:44;;;;;;;10.10;5.47;;;28.70;99.90;;;;;;5011175;28;20025;-76
2022/01/03 03:30:24;;;;;;;8.23;5.15;;;28.70;99.90;;;;;;5012516;28;20037;-74
2022/01/03 03:32:53;;;;;;;15.25;9.65;;;28.70;99.90;;;;;;5012443;28;20073;-72
2022/01/03 03:35:21;;;;;;;9.27;6.05;;;28.70;99.90;;;;;;5012406;28;20045;-74
2022/01/03 03:37:47;;;;;;;21.27;9.35;;;28.70;99.90;;;;;;5010734;28;20056;-72
2022/01/03 03:40:14;;;;;;;11.77;6.90;;;28.70;99.90;;;;;;5012721;28;20014;-70
2022/01/03 03:42:42;;;;;;;8.80;5.57;;;28.60;99.90;;;;;;5013264;28;20033;-75
2022/01/03 03:45:09;;;;;;;9.15;6.30;;;28.60;99.90;;;;;;5011765;28;20072;-72
2022/01/03 03:47:36;;;;;;;13.15;6.75;;;28.50;99.90;;;;;;5011518;28;20360;-73
2022/01/03 03:50:04;;;;;;;9.57;7.07;;;28.60;99.90;;;;;;5013080;28;20029;-77
2022/01/03 03:52:32;;;;;;;12.57;5.82;;;28.60;99.90;;;;;;5012941;28;20030;-72
2022/01/03 03:54:59;;;;;;;10.02;6.78;;;28.70;99.90;;;;;;5016757;28;20064;-73
2022/01/03 03:57:25;;;;;;;12.65;8.07;;;28.90;99.90;;;;;;5014696;28;20033;-72
2022/01/03 03:59:53;;;;;;;7.82;5.50;;;29.00;99.90;;;;;;5015573;28;20029;-71
2022/01/03 04:02:19;;;;;;;10.05;5.32;;;29.00;99.90;;;;;;5018212;28;20116;-72
2022/01/03 04:04:46;;;;;;;37.63;25.20;;;28.90;99.90;;;;;;5016049;28;20064;-74
2022/01/03 04:07:13;;;;;;;12.80;8.40;;;28.90;99.90;;;;;;5016779;28;20076;-72
2022/01/03 04:09:39;;;;;;;16.02;9.20;;;28.90;99.90;;;;;;5015832;28;20057;-72
2022/01/03 04:12:07;;;;;;;11.90;7.75;;;29.00;99.90;;;;;;5017551;28;20058;-73
2022/01/03 04:14:33;;;;;;;14.35;7.75;;;29.00;99.90;;;;;;5014747;28;20018;-73
2022/01/03 04:17:00;;;;;;;14.68;8.57;;;29.00;99.90;;;;;;5016255;28;20125;-74
2022/01/03 04:19:27;;;;;;;13.93;8.77;;;29.10;99.90;;;;;;5017800;28;20020;-71
2022/01/03 04:21:53;;;;;;;11.20;7.82;;;29.10;99.90;;;;;;5014083;28;20109;-72
2022/01/03 04:24:20;;;;;;;10.68;7.80;;;29.10;99.90;;;;;;5014970;28;20097;-72
2022/01/03 04:26:49;;;;;;;9.07;6.95;;;29.00;99.90;;;;;;5015426;28;20026;-73
2022/01/03 04:29:16;;;;;;;11.75;9.43;;;29.00;99.90;;;;;;5014442;28;20034;-73
2022/01/03 04:31:43;;;;;;;11.80;6.95;;;29.20;99.90;;;;;;5014376;28;20045;-73
2022/01/03 04:34:10;;;;;;;12.05;9.20;;;29.40;99.90;;;;;;5015360;28;20022;-70
2022/01/03 04:36:36;;;;;;;10.25;6.68;;;29.50;99.90;;;;;;5014197;28;20448;-73
2022/01/03 04:39:04;;;;;;;12.75;7.22;;;29.40;99.90;;;;;;5012399;28;20510;-74
2022/01/03 04:41:31;;;;;;;27.73;8.20;;;29.40;99.90;;;;;;5014050;28;20033;-72
2022/01/03 04:43:57;;;;;;;19.75;8.00;;;29.60;99.90;;;;;;5018145;28;20030;-73
2022/01/03 04:46:24;;;;;;;11.02;7.65;;;29.60;99.90;;;;;;5014049;28;20399;-74
2022/01/03 04:48:51;;;;;;;20.58;7.38;;;29.60;99.90;;;;;;5013299;28;20041;-70
2022/01/03 04:51:18;;;;;;;14.48;7.50;;;29.60;99.90;;;;;;5012772;28;20026;-70
2022/01/03 04:53:45;;;;;;;11.80;5.97;;;29.60;99.90;;;;;;5012425;28;20113;-69
2022/01/03 04:56:13;;;;;;;11.15;6.20;;;29.70;99.90;;;;;;5015990;28;20029;-68
2022/01/03 04:58:41;;;;;;;12.85;7.65;;;29.80;99.90;;;;;;5015121;28;20076;-69
2022/01/03 05:01:08;;;;;;;10.18;6.72;;;29.90;99.90;;;;;;5014816;28;20036;-71
2022/01/03 05:03:35;;;;;;;15.13;8.70;;;29.90;99.90;;;;;;5014168;28;20383;-69
2022/01/03 05:06:03;;;;;;;17.52;6.53;;;30.10;99.90;;;;;;5013408;28;20025;-70
2022/01/03 05:08:30;;;;;;;12.90;7.68;;;30.20;99.90;;;;;;5014513;28;20046;-69
2022/01/03 05:11:00;;;;;;;14.88;6.40;;;30.10;99.90;;;;;;5014590;28;20057;-73
2022/01/03 05:13:29;;;;;;;11.00;5.88;;;30.00;99.90;;;;;;5017015;28;20076;-73
2022/01/03 05:15:56;;;;;;;10.57;5.60;;;30.00;99.90;;;;;;5012546;28;20117;-71
2022/01/03 05:18:22;;;;;;;10.55;5.85;;;29.90;99.90;;;;;;5017105;28;20025;-71
2022/01/03 05:20:49;;;;;;;9.77;4.88;;;29.90;99.90;;;;;;5015694;28;20022;-71
2022/01/03 05:23:16;;;;;;;12.32;5.53;;;29.90;99.90;;;;;;5014919;28;20105;-71
2022/01/03 05:25:43;;;;;;;7.57;5.03;;;30.00;99.90;;;;;;5012830;28;20022;-70
2022/01/03 05:28:10;;;;;;;8.18;4.68;;;30.20;99.90;;;;;;5016306;28;20036;-71
2022/01/03 05:30:37;;;;;;;9.73;4.45;;;30.30;99.90;;;;;;5015186;28;20049;-70
2022/01/03 05:33:04;;;;;;;12.40;5.30;;;30.30;99.90;;;;;;5016490;28;20062;-70
2022/01/03 05:35:31;;;;;;;11.85;5.45;;;30.30;99.90;;;;;;5014418;28;20113;-71
2022/01/03 05:37:58;;;;;;;12.02;6.32;;;30.20;99.90;;;;;;5013646;28;20064;-69
2022/01/03 05:40:25;;;;;;;13.82;6.53;;;30.20;99.90;;;;;;5014940;28;20030;-70
2022/01/03 05:42:52;;;;;;;8.63;5.60;;;30.30;99.90;;;;;;5016100;28;20018;-70
2022/01/03 05:45:19;;;;;;;11.98;6.88;;;30.40;99.90;;;;;;5013812;28;20467;-70
2022/01/03 05:47:47;;;;;;;6.22;4.85;;;30.40;99.90;;;;;;5016565;28;20021;-70
2022/01/03 05:50:15;;;;;;;14.27;5.78;;;30.30;99.90;;;;;;5015644;28;20036;-70
2022/01/03 05:52:43;;;;;;;9.73;5.68;;;30.20;99.90;;;;;;5014303;28;20056;-71
2022/01/03 05:55:10;;;;;;;16.02;7.38;;;30.30;99.90;;;;;;5014170;28;20390;-71
2022/01/03 05:57:39;;;;;;;11.13;6.25;;;30.30;99.90;;;;;;5014322;28;20421;-70
2022/01/03 06:00:11;;;;;;;34.70;16.45;;;30.30;98.90;;;;;;5014724;28;20029;-70
2022/01/03 06:02:41;;;;;;;13.20;6.80;;;30.30;99.00;;;;;;5015631;28;20479;-73
2022/01/03 06:05:16;;;;;;;10.30;5.50;;;30.40;98.50;;;;;;5017768;28;20076;-71
2022/01/03 06:07:43;;;;;;;13.90;8.75;;;30.50;99.70;;;;;;5016239;28;20025;-70
2022/01/03 06:10:15;;;;;;;8.48;4.90;;;30.60;98.50;;;;;;5014078;28;20034;-70
2022/01/03 06:12:42;;;;;;;14.18;6.07;;;30.80;97.10;;;;;;5012805;28;20014;-71
2022/01/03 06:15:09;;;;;;;8.73;4.65;;;31.00;97.10;;;;;;5012207;28;20033;-70
2022/01/03 06:17:36;;;;;;;15.43;4.82;;;31.00;97.10;;;;;;5013177;28;20014;-71
2022/01/03 06:20:02;;;;;;;9.82;4.50;;;31.10;95.80;;;;;;5013301;28;20463;-71
2022/01/03 06:22:29;;;;;;;13.85;6.47;;;31.30;95.90;;;;;;5012471;28;20044;-71
2022/01/03 06:24:56;;;;;;;31.17;19.30;;;31.30;95.20;;;;;;5013966;28;20025;-71
2022/01/03 06:27:22;;;;;;;7.43;4.78;;;31.50;95.80;;;;;;5012596;28;20117;-75
2022/01/03 06:29:49;;;;;;;9.98;4.93;;;31.60;94.30;;;;;;5012347;28;20037;-72
2022/01/03 06:32:16;;;;;;;9.70;4.97;;;31.70;93.60;;;;;;5013131;28;20097;-73
2022/01/03 06:34:42;;;;;;;7.75;3.83;;;31.60;94.00;;;;;;5013805;28;20030;-74
2022/01/03 06:37:09;;;;;;;7.30;4.50;;;31.50;92.80;;;;;;5012973;28;20022;-72
2022/01/03 06:39:36;;;;;;;7.25;4.57;;;31.40;94.70;;;;;;5012036;28;20067;-73
2022/01/03 06:42:02;;;;;;;6.30;3.95;;;31.50;95.20;;;;;;5011004;28;20033;-76
2022/01/03 06:44:29;;;;;;;5.00;3.55;;;31.50;92.70;;;;;;5011630;28;20529;-78
2022/01/03 06:46:56;;;;;;;8.40;4.25;;;31.70;92.20;;;;;;5011464;28;20066;-75
2022/01/03 06:49:22;;;;;;;8.88;4.20;;;31.90;92.70;;;;;;5012816;28;21273;-69
2022/01/03 06:51:49;;;;;;;6.10;3.75;;;31.90;93.00;;;;;;5011595;28;20030;-72
2022/01/03 06:54:16;;;;;;;12.45;3.78;;;31.90;91.80;;;;;;5013403;28;20032;-74
2022/01/03 06:56:42;;;;;;;9.00;4.30;;;31.90;90.50;;;;;;5011137;28;20168;-73
2022/01/03 06:59:10;;;;;;;5.28;3.80;;;31.80;91.20;;;;;;5012469;28;20026;-69
2022/01/03 07:01:38;;;;;;;7.72;3.55;;;31.80;91.30;;;;;;5010468;28;20084;-71
2022/01/03 07:04:05;;;;;;;8.48;4.65;;;31.80;90.50;;;;;;5012470;28;20109;-74
2022/01/03 07:06:32;;;;;;;10.95;5.35;;;31.90;91.00;;;;;;5013292;28;20026;-70
2022/01/03 07:08:59;;;;;;;15.82;7.50;;;32.00;91.50;;;;;;5012134;28;20057;-72
2022/01/03 07:11:26;;;;;;;11.65;5.07;;;32.00;92.20;;;;;;5011225;28;20038;-71
2022/01/03 07:14:04;;;;;;;9.75;5.97;;;32.20;90.50;;;;;;5013444;28;20045;-71
2022/01/03 07:19:06;;;;;;;10.98;6.45;;;31.90;90.60;;;;;;5011899;28;20026;-72
2022/01/03 07:21:34;;;;;;;9.27;5.72;;;32.00;90.30;;;;;;5012019;28;20109;-71
2022/01/03 07:24:01;;;;;;;7.40;5.32;;;32.00;91.10;;;;;;5012931;28;20038;-73
2022/01/03 07:26:29;;;;;;;7.72;4.45;;;32.00;91.40;;;;;;5012869;28;20496;-72
2022/01/03 07:28:55;;;;;;;7.32;4.30;;;32.10;90.10;;;;;;5013608;28;20022;-72
2022/01/03 07:31:22;;;;;;;7.13;4.15;;;32.10;90.40;;;;;;5017394;28;20052;-71
2022/01/03 07:33:49;;;;;;;10.43;6.13;;;32.20;89.80;;;;;;5017178;28;20034;-71
2022/01/03 07:36:16;;;;;;;8.43;5.65;;;32.20;87.90;;;;;;5016132;28;20026;-71
2022/01/03 07:38:46;;;;;;;8.00;4.25;;;32.30;90.10;;;;;;5017004;28;20140;-71
2022/01/03 07:41:15;;;;;;;57.08;36.95;;;32.40;87.40;;;;;;5017317;28;20022;-72
2022/01/03 07:43:42;;;;;;;6.10;4.40;;;32.50;89.20;;;;;;5016447;28;20053;-71
2022/01/03 07:46:09;;;;;;;5.43;4.20;;;32.40;89.00;;;;;;5016383;28;20026;-73
2022/01/03 07:48:35;;;;;;;13.38;7.63;;;32.30;87.70;;;;;;5016444;28;20084;-71
2022/01/03 07:51:02;;;;;;;24.00;5.65;;;32.30;87.70;;;;;;5016304;28;20097;-71
2022/01/03 07:53:29;;;;;;;18.27;12.50;;;32.30;88.00;;;;;;5016604;28;20073;-71
2022/01/03 07:55:58;;;;;;;11.63;6.13;;;32.30;87.20;;;;;;5015654;28;20030;-72
2022/01/03 07:58:25;;;;;;;12.98;6.45;;;32.20;86.20;;;;;;5015538;28;20458;-72
2022/01/03 08:00:51;;;;;;;9.30;5.28;;;32.20;87.30;;;;;;5015421;28;20044;-71
2022/01/03 08:03:18;;;;;;;16.00;5.30;;;32.20;84.60;;;;;;5015389;28;20022;-76
2022/01/03 08:05:45;;;;;;;14.20;4.95;;;32.00;86.30;;;;;;5014207;28;20028;-76
2022/01/03 08:08:12;;;;;;;10.93;6.57;;;32.00;87.90;;;;;;5015408;28;20068;-76
2022/01/03 08:10:41;;;;;;;10.15;6.85;;;32.00;86.00;;;;;;5015270;28;20037;-75
2022/01/03 08:13:08;;;;;;;18.67;11.80;;;32.00;87.40;;;;;;5015800;28;20077;-75
2022/01/03 08:15:34;;;;;;;20.02;12.93;;;32.00;87.40;;;;;;5015397;28;20356;-77
2022/01/03 08:18:01;;;;;;;27.42;19.42;;;32.00;88.70;;;;;;5015235;28;20069;-72
2022/01/03 08:20:28;;;;;;;20.23;11.70;;;32.10;86.30;;;;;;5016321;28;20032;-72
2022/01/03 08:22:54;;;;;;;13.82;6.70;;;32.10;89.60;;;;;;5015300;28;20036;-73
2022/01/03 08:25:21;;;;;;;13.50;5.50;;;32.10;87.20;;;;;;5014906;28;20037;-71
2022/01/03 08:27:48;;;;;;;18.88;6.68;;;32.00;86.80;;;;;;5015000;28;20094;-73
2022/01/03 08:30:15;;;;;;;15.68;6.80;;;32.00;88.40;;;;;;5020338;28;20046;-78
2022/01/03 08:32:42;;;;;;;12.13;6.20;;;32.00;85.80;;;;;;5015560;28;20053;-72
2022/01/03 08:35:10;;;;;;;13.68;6.22;;;32.10;87.20;;;;;;5018516;28;20125;-74
2022/01/03 08:37:37;;;;;;;13.43;6.28;;;32.10;88.00;;;;;;5015143;28;20430;-74
2022/01/03 08:40:06;;;;;;;12.75;5.97;;;32.10;88.50;;;;;;5007386;28;20034;-73
2022/01/03 08:42:34;;;;;;;13.57;6.85;;;32.10;86.70;;;;;;4996426;28;20383;-74
2022/01/03 08:45:03;;;;;;;12.73;6.88;;;32.00;85.50;;;;;;5013710;28;20060;-74
2022/01/03 08:47:30;;;;;;;15.98;5.85;;;32.00;87.40;;;;;;5015758;28;20411;-71
2022/01/03 08:49:57;;;;;;;11.35;5.68;;;32.00;85.90;;;;;;5015888;28;20053;-71
2022/01/03 08:52:23;;;;;;;10.60;4.75;;;32.00;86.00;;;;;;5015818;28;20026;-70
2022/01/03 08:54:50;;;;;;;8.38;4.80;;;32.10;85.50;;;;;;5015626;28;20026;-73
2022/01/03 08:57:18;;;;;;;9.05;4.82;;;32.00;85.20;;;;;;5015510;28;20486;-70
2022/01/03 08:59:44;;;;;;;7.70;5.18;;;32.00;86.70;;;;;;5014656;28;20049;-70
2022/01/03 09:02:12;;;;;;;11.82;5.07;;;32.00;86.50;;;;;;5014964;28;20505;-71
2022/01/03 09:04:39;;;;;;;8.80;5.43;;;32.00;86.40;;;;;;5015400;28;20030;-69
2022/01/03 09:07:06;;;;;;;8.68;5.18;;;32.00;86.20;;;;;;5013488;28;20022;-69
2022/01/03 09:09:34;;;;;;;11.98;5.85;;;32.00;86.30;;;;;;5006718;28;20029;-68
2022/01/03 09:12:02;;;;;;;11.23;4.85;;;32.00;87.40;;;;;;5014395;28;20080;-70
2022/01/03 09:14:29;;;;;;;10.55;4.97;;;32.00;87.10;;;;;;5017494;28;20038;-70
2022/01/03 09:16:55;;;;;;;11.88;6.75;;;32.00;89.60;;;;;;5014231;28;20521;-71
2022/01/03 09:19:23;;;;;;;12.50;6.45;;;32.00;87.50;;;;;;5014652;28;20114;-74
2022/01/03 09:21:49;;;;;;;14.73;7.32;;;32.00;88.80;;;;;;5014234;28;20045;-72
2022/01/03 09:24:23;;;;;;;12.23;6.55;;;32.00;88.30;;;;;;5013704;28;20026;-75
2022/01/03 09:29:28;;;;;;;15.13;8.45;;;32.00;88.00;;;;;;5014059;28;20124;-72
2022/01/03 09:31:55;;;;;;;11.27;6.65;;;31.90;89.60;;;;;;5013217;28;20030;-73
2022/01/03 09:34:22;;;;;;;8.40;5.93;;;32.00;87.80;;;;;;5014025;28;20085;-75
2022/01/03 09:36:48;;;;;;;12.48;7.38;;;32.00;85.90;;;;;;5012530;28;20121;-71
2022/01/03 09:39:15;;;;;;;11.13;8.05;;;32.00;86.50;;;;;;5008964;28;20041;-73
2022/01/03 09:41:57;;;;;;;15.60;7.57;;;32.00;87.40;;;;;;5014957;28;20037;-72
2022/01/03 09:44:29;;;;;;;12.43;7.00;;;31.90;90.00;;;;;;5014612;28;21082;-70
2022/01/03 09:47:00;;;;;;;13.38;7.15;;;31.90;89.10;;;;;;5009649;28;20603;-71
2022/01/03 09:49:34;;;;;;;18.25;7.10;;;31.90;88.10;;;;;;5007654;28;20052;-72
2022/01/03 09:52:03;;;;;;;15.55;6.97;;;31.90;87.30;;;;;;5014665;28;20022;-73
2022/01/03 09:54:30;;;;;;;16.85;8.07;;;31.90;86.70;;;;;;5009807;28;20026;-73
2022/01/03 09:56:59;;;;;;;13.32;7.03;;;31.80;89.40;;;;;;5013570;28;20049;-71
2022/01/03 09:59:28;;;;;;;16.85;7.03;;;31.80;88.90;;;;;;5013342;28;20034;-70
2022/01/03 10:01:56;;;;;;;15.02;6.60;;;31.80;88.80;;;;;;5014044;28;20022;-69
2022/01/03 10:04:23;;;;;;;13.57;9.15;;;31.80;87.00;;;;;;5013820;28;20431;-74
2022/01/03 10:06:50;;;;;;;20.58;10.45;;;31.80;88.40;;;;;;5014808;28;20391;-72
2022/01/03 10:09:19;;;;;;;28.63;18.80;;;31.80;90.00;;;;;;5014352;28;20022;-70
2022/01/03 10:11:47;;;;;;;34.33;17.00;;;31.80;88.50;;;;;;5014860;28;20030;-72
2022/01/03 10:14:15;;;;;;;42.63;21.30;;;31.80;89.90;;;;;;5014761;28;20030;-69
2022/01/03 10:16:43;;;;;;;25.33;17.35;;;31.80;89.10;;;;;;5014608;28;20028;-70
2022/01/03 10:19:10;;;;;;;18.83;12.80;;;31.80;90.00;;;;;;5014736;28;20029;-68
2022/01/03 10:21:48;;;;;;;14.15;9.00;;;31.80;90.00;;;;;;5016891;28;20454;-69
2022/01/03 10:24:18;;;;;;;22.85;13.43;;;31.80;88.90;;;;;;5034307;28;20021;-68
2022/01/03 10:26:55;;;;;;;12.75;9.38;;;31.80;87.40;;;;;;5027465;28;20374;-71
2022/01/03 10:29:24;;;;;;;18.85;10.82;;;31.70;87.00;;;;;;5015259;28;20455;-70
2022/01/03 10:31:54;;;;;;;14.27;8.10;;;31.70;88.80;;;;;;5026039;28;20104;-70
2022/01/03 10:34:23;;;;;;;16.50;8.35;;;31.70;88.40;;;;;;5012485;28;20026;-70
2022/01/03 10:36:51;;;;;;;18.75;8.95;;;31.60;88.10;;;;;;5003639;28;20483;-73
2022/01/03 10:39:26;;;;;;;24.88;14.52;;;31.60;89.60;;;;;;5009156;28;20030;-77
2022/01/03 10:42:11;;;;;;;40.53;29.88;;;31.60;89.90;;;;;;5022110;28;20387;-78
2022/01/03 10:44:41;;;;;;;96.30;77.18;;;31.70;90.60;;;;;;5015872;28;20030;-74
2022/01/03 10:47:09;;;;;;;82.47;45.05;;;31.60;89.60;;;;;;5025256;28;20038;-75
2022/01/03 10:49:38;;;;;;;121.45;75.07;;;31.60;88.80;;;;;;5013012;28;20026;-75
2022/01/03 10:52:18;;;;;;;97.13;62.13;;;31.60;90.30;;;;;;5013232;28;20029;-75
2022/01/03 10:54:58;;;;;;;85.70;63.08;;;31.50;89.60;;;;;;5015494;28;20112;-74
2022/01/03 10:57:45;;;;;;;71.65;44.63;;;31.50;90.20;;;;;;5010516;28;20040;-80
2022/01/03 11:00:31;;;;;;;71.30;39.10;;;31.50;90.60;;;;;;5013577;28;20022;-79
2022/01/03 11:03:18;;;;;;;139.35;72.22;;;31.40;90.30;;;;;;5012648;28;20486;-79
2022/01/03 11:05:51;;;;;;;261.27;143.20;;;31.40;91.10;;;;;;5024888;28;20052;-74
2022/01/03 11:10:57;;;;;;;256.90;152.90;;;31.40;90.90;;;;;;5019916;28;20026;-73
2022/01/03 11:13:24;;;;;;;265.52;173.18;;;31.30;91.10;;;;;;5017334;28;20471;-72
2022/01/03 11:15:57;;;;;;;263.02;150.68;;;31.30;92.30;;;;;;5016457;28;20029;-70
2022/01/03 11:18:28;;;;;;;271.42;160.13;;;31.30;92.30;;;;;;5017352;28;20026;-74
2022/01/03 11:21:04;;;;;;;490.58;344.92;;;31.20;92.40;;;;;;5015593;28;20029;-70
2022/01/03 11:23:31;;;;;;;246.98;134.48;;;31.20;92.50;;;;;;4997527;28;20068;-72
2022/01/03 11:26:04;;;;;;;293.40;168.65;;;31.20;92.30;;;;;;4997820;28;20042;-72
2022/01/03 11:28:30;;;;;;;343.80;184.10;;;31.20;92.90;;;;;;5013367;28;20026;-73
2022/01/03 11:30:59;;;;;;;401.45;214.30;;;31.10;92.60;;;;;;5016694;28;20125;-76
2022/01/03 11:33:27;;;;;;;362.67;176.52;;;31.00;93.50;;;;;;5017560;28;20100;-73
2022/01/03 11:35:53;;;;;;;315.60;171.90;;;30.90;93.80;;;;;;5017118;28;20125;-72
2022/01/03 11:38:23;;;;;;;350.23;184.10;;;31.00;93.80;;;;;;5017288;28;20026;-72
2022/01/03 11:40:50;;;;;;;317.67;165.50;;;30.90;94.60;;;;;;5014968;28;20037;-71
2022/01/03 11:43:18;;;;;;;281.88;143.27;;;30.80;94.90;;;;;;5016971;28;20026;-72
2022/01/03 11:45:45;;;;;;;236.40;124.22;;;30.80;94.70;;;;;;5017197;28;20382;-71
2022/01/03 11:48:12;;;;;;;246.63;128.60;;;30.80;94.60;;;;;;5014761;28;20108;-76
2022/01/03 11:50:40;;;;;;;273.95;130.55;;;30.90;95.00;;;;;;5016648;28;20036;-73
2022/01/03 11:53:09;;;;;;;303.70;162.73;;;30.80;95.80;;;;;;5012699;28;20033;-74
2022/01/03 11:55:37;;;;;;;259.02;140.80;;;30.80;95.90;;;;;;5017450;28;20029;-75
2022/01/03 12:05:42;;;;;;;288.55;146.93;;;30.40;96.30;;;;;;5014834;28;20022;-74
2022/01/03 12:08:21;;;;;;;288.70;146.60;;;30.30;96.90;;;;;;5013760;28;20021;-74
2022/01/03 12:10:48;;;;;;;274.73;141.18;;;30.20;96.90;;;;;;5012966;28;20089;-73
2022/01/03 12:13:15;;;;;;;250.90;128.52;;;30.20;97.20;;;;;;5016199;28;20454;-74
2022/01/03 12:15:42;;;;;;;251.00;128.57;;;30.10;97.60;;;;;;5014502;28;20042;-73
2022/01/03 12:18:29;;;;;;;258.90;135.43;;;30.20;98.40;;;;;;5015733;28;20524;-76
2022/01/03 12:20:56;;;;;;;237.68;128.18;;;30.30;98.30;;;;;;5012591;28;20037;-72
2022/01/03 12:23:35;;;;;;;263.55;135.18;;;30.40;98.60;;;;;;5015857;28;20044;-74
2022/01/03 12:26:11;;;;;;;482.90;260.85;;;30.30;99.90;;;;;;5012392;28;20034;-74
2022/01/03 12:29:01;;;;;;;414.08;227.68;;;30.40;99.70;;;;;;5018094;28;20022;-73
2022/01/03 12:31:27;;;;;;;458.17;249.27;;;30.30;99.70;;;;;;5004504;28;20165;-75
2022/01/03 12:34:17;;;;;;;465.38;263.45;;;30.10;99.80;;;;;;5009324;28;20030;-74
2022/01/03 12:37:15;;;;;;;465.42;274.75;;;30.00;99.90;;;;;;5011075;28;20044;-77
2022/01/03 12:40:13;;;;;;;453.25;265.02;;;30.00;99.90;;;;;;5014352;28;20032;-74
2022/01/03 12:42:51;;;;;;;398.88;221.20;;;30.00;99.90;;;;;;5012534;28;20029;-72
2022/01/03 12:45:32;;;;;;;424.88;236.20;;;30.10;99.90;;;;;;5007695;28;20026;-77
2022/01/03 12:48:18;;;;;;;527.95;333.48;;;30.20;99.90;;;;;;5010595;28;20032;-74
2022/01/03 12:50:53;;;;;;;509.73;311.95;;;30.30;99.90;;;;;;5014259;28;20029;-75
2022/01/03 12:53:23;;;;;;;495.98;302.98;;;30.20;99.90;;;;;;5006619;28;20031;-74
2022/01/03 12:55:53;;;;;;;465.20;274.05;;;30.10;99.90;;;;;;4999450;28;20032;-74